createdAt,value
2023-03-21T00:00:46.123Z,0.52
2023-03-21T00:03:13.631Z,1.81
2023-03-21T00:05:42.392Z,1.75
2023-03-21T00:08:10.480Z,1.75
2023-03-21T00:10:43.444Z,1.08
2023-03-21T00:13:12.206Z,1.87
2023-03-21T00:15:44.363Z,1.25
2023-03-21T00:18:19.940Z,1.11
2023-03-21T00:21:15.737Z,1.42
2023-03-21T00:23:44.046Z,0.99
2023-03-21T00:26:11.030Z,0.72
2023-03-21T00:28:40.498Z,0.83
2023-03-21T00:31:07.500Z,0.67
2023-03-21T00:33:34.455Z,1.06
2023-03-21T00:36:05.573Z,1.43
2023-03-21T00:38:32.717Z,1.45
2023-03-21T00:41:04.607Z,1.04
2023-03-21T00:43:38.827Z,1.04
2023-03-21T00:46:06.249Z,0.99
2023-03-21T00:48:32.989Z,1.03
2023-03-21T00:50:59.880Z,2.09
2023-03-21T00:53:28.506Z,1.28
2023-03-21T00:55:55.258Z,1.12
2023-03-21T00:58:21.983Z,1.28
2023-03-21T01:00:50.146Z,1.12
2023-03-21T01:03:24.789Z,0.94
2023-03-21T01:05:52.911Z,0.69
2023-03-21T01:08:27.922Z,0.83
2023-03-21T01:11:02.127Z,0.59
2023-03-21T01:13:28.928Z,0.77
2023-03-21T01:15:57.943Z,1.09
2023-03-21T01:18:27.256Z,1.11
2023-03-21T01:20:55.291Z,0.93
2023-03-21T01:23:22.353Z,1.37
2023-03-21T01:25:50.879Z,1.35
2023-03-21T01:28:17.643Z,1.00
2023-03-21T01:30:48.462Z,1.11
2023-03-21T01:33:17.781Z,1.41
2023-03-21T01:35:55.130Z,1.26
2023-03-21T01:38:24.511Z,1.04
2023-03-21T01:40:51.841Z,0.89
2023-03-21T01:43:24.896Z,1.52
2023-03-21T01:46:30.176Z,1.61
2023-03-21T01:49:04.495Z,1.73
2023-03-21T01:51:36.356Z,1.27
2023-03-21T01:54:04.567Z,0.92
2023-03-21T01:56:36.096Z,1.55
2023-03-21T01:59:08.420Z,1.06
2023-03-21T02:01:36.312Z,1.27
2023-03-21T02:04:05.146Z,1.26
2023-03-21T02:06:38.203Z,1.02
2023-03-21T02:09:08.876Z,0.89
2023-03-21T02:11:37.942Z,1.33
2023-03-21T02:14:07.018Z,1.38
2023-03-21T02:16:46.157Z,1.73
2023-03-21T02:22:33.882Z,0.95
2023-03-21T02:25:36.228Z,1.14
2023-03-21T02:28:10.020Z,0.94
2023-03-21T02:31:05.359Z,0.83
2023-03-21T02:33:59.984Z,1.79
2023-03-21T02:36:50.730Z,1.31
2023-03-21T02:39:24.767Z,0.97
2023-03-21T02:41:59.389Z,1.07
2023-03-21T02:44:32.010Z,1.57
2023-03-21T02:47:06.267Z,1.13
2023-03-21T02:49:40.767Z,1.79
2023-03-21T02:52:18.672Z,1.31
2023-03-21T02:54:50.753Z,1.27
2023-03-21T02:57:19.437Z,2.05
2023-03-21T02:59:55.495Z,1.54
2023-03-21T03:02:28.320Z,1.25
2023-03-21T03:04:55.168Z,1.07
2023-03-21T03:07:36.040Z,1.39
2023-03-21T03:10:15.117Z,1.19
2023-03-21T03:12:51.963Z,0.92
2023-03-21T03:15:29.558Z,1.75
2023-03-21T03:18:02.299Z,1.18
2023-03-21T03:20:38.661Z,1.05
2023-03-21T03:23:17.933Z,0.82
2023-03-21T03:25:50.081Z,0.78
2023-03-21T03:28:20.632Z,0.69
2023-03-21T03:31:07.065Z,1.36
2023-03-21T03:33:37.089Z,1.13
2023-03-21T03:36:07.105Z,0.84
2023-03-21T03:38:38.802Z,0.91
2023-03-21T03:41:10.603Z,0.62
2023-03-21T03:43:43.655Z,0.51
2023-03-21T03:46:16.336Z,0.46
2023-03-21T03:48:46.895Z,0.43
2023-03-21T03:51:20.773Z,1.44
2023-03-21T03:53:53.900Z,1.35
2023-03-21T03:56:21.450Z,2.99
2023-03-21T03:58:49.117Z,2.40
2023-03-21T04:01:16.017Z,1.58
2023-03-21T04:03:50.566Z,1.20
2023-03-21T04:06:19.837Z,0.81
2023-03-21T04:08:46.602Z,1.55
2023-03-21T04:11:15.571Z,5.64
2023-03-21T04:13:42.471Z,4.03
2023-03-21T04:16:10.154Z,2.48
2023-03-21T04:18:37.095Z,1.53
2023-03-21T04:21:08.028Z,1.71
2023-03-21T04:23:34.848Z,1.19
2023-03-21T04:26:01.637Z,0.90
2023-03-21T04:28:29.898Z,0.68
2023-03-21T04:31:03.529Z,0.82
2023-03-21T04:33:33.499Z,1.80
2023-03-21T04:36:00.331Z,1.33
2023-03-21T04:38:27.188Z,1.07
2023-03-21T04:40:53.918Z,0.98
2023-03-21T04:43:20.794Z,0.84
2023-03-21T04:45:49.030Z,0.88
2023-03-21T04:48:16.367Z,0.85
2023-03-21T04:50:43.229Z,0.93
2023-03-21T04:53:10.018Z,0.72
2023-03-21T04:55:37.055Z,0.57
2023-03-21T04:58:04.672Z,0.68
2023-03-21T05:00:31.694Z,0.65
2023-03-21T05:02:59.849Z,1.21
2023-03-21T05:05:26.699Z,0.77
2023-03-21T05:07:53.525Z,0.74
2023-03-21T05:10:20.617Z,0.96
2023-03-21T05:12:47.368Z,1.06
2023-03-21T05:15:14.112Z,1.38
2023-03-21T05:17:40.871Z,4.00
2023-03-21T05:20:10.477Z,2.88
2023-03-21T05:22:37.261Z,2.06
2023-03-21T05:25:04.443Z,1.24
2023-03-21T05:27:31.183Z,1.35
2023-03-21T05:29:57.942Z,1.10
2023-03-21T05:32:24.970Z,1.17
2023-03-21T05:34:51.884Z,2.36
2023-03-21T05:37:20.534Z,2.10
2023-03-21T05:39:47.405Z,1.87
2023-03-21T05:42:15.398Z,1.27
2023-03-21T05:44:43.014Z,2.13
2023-03-21T05:47:09.895Z,1.41
2023-03-21T05:49:36.706Z,0.94
2023-03-21T05:52:03.668Z,1.49
2023-03-21T05:54:32.139Z,1.81
2023-03-21T05:56:58.899Z,1.34
2023-03-21T05:59:25.776Z,1.02
2023-03-21T06:01:52.920Z,1.00
2023-03-21T06:04:19.776Z,0.72
2023-03-21T06:06:46.789Z,1.26
2023-03-21T06:09:14.092Z,1.48
2023-03-21T06:11:48.338Z,1.53
2023-03-21T06:16:41.928Z,0.98
2023-03-21T06:19:08.720Z,2.00
2023-03-21T06:21:35.530Z,2.20
2023-03-21T06:24:02.703Z,1.45
2023-03-21T06:26:29.698Z,2.41
2023-03-21T06:28:57.911Z,1.67
2023-03-21T06:31:24.800Z,1.11
2023-03-21T06:33:51.709Z,0.76
2023-03-21T06:36:19.583Z,1.07
2023-03-21T06:38:46.360Z,1.17
2023-03-21T06:41:13.688Z,1.11
2023-03-21T06:43:40.564Z,0.88
2023-03-21T06:46:10.083Z,0.80
2023-03-21T06:48:39.444Z,0.99
2023-03-21T06:51:10.049Z,0.90
2023-03-21T06:53:36.959Z,0.81
2023-03-21T06:56:05.273Z,0.86
2023-03-21T06:58:32.546Z,0.72
2023-03-21T07:01:02.774Z,1.28
2023-03-21T07:03:31.387Z,1.08
2023-03-21T07:05:58.275Z,1.72
2023-03-21T07:08:28.989Z,1.26
2023-03-21T07:11:00.803Z,0.92
2023-03-21T07:13:27.816Z,0.78
2023-03-21T07:15:55.703Z,1.26
2023-03-21T07:18:22.752Z,0.74
2023-03-21T07:20:51.867Z,0.70
2023-03-21T07:23:20.060Z,0.56
2023-03-21T07:25:48.033Z,0.64
2023-03-21T07:28:15.340Z,0.82
2023-03-21T07:30:42.118Z,0.63
2023-03-21T07:33:09.030Z,0.77
2023-03-21T07:35:36.401Z,0.64
2023-03-21T07:38:05.546Z,0.88
2023-03-21T07:40:33.704Z,1.28
2023-03-21T07:45:32.308Z,1.03
2023-03-21T07:47:59.251Z,1.01
2023-03-21T07:50:29.432Z,1.18
2023-03-21T07:52:56.406Z,0.77
2023-03-21T07:55:24.578Z,0.64
2023-03-21T07:57:51.753Z,0.52
2023-03-21T08:00:19.683Z,0.89
2023-03-21T08:02:46.524Z,0.89
2023-03-21T08:05:13.555Z,0.71
2023-03-21T08:07:40.623Z,0.72
2023-03-21T08:10:08.834Z,0.57
2023-03-21T08:12:36.945Z,0.58
2023-03-21T08:15:04.244Z,0.77
2023-03-21T08:17:30.980Z,0.69
2023-03-21T08:19:57.729Z,0.93
2023-03-21T08:22:25.562Z,0.68
2023-03-21T08:24:52.357Z,1.16
2023-03-21T08:27:19.551Z,1.35
2023-03-21T08:29:48.913Z,1.43
2023-03-21T08:32:18.849Z,1.55
2023-03-21T08:34:45.945Z,1.15
2023-03-21T08:37:13.017Z,1.16
2023-03-21T08:39:41.083Z,0.91
2023-03-21T08:42:08.099Z,0.69
2023-03-21T08:44:35.031Z,0.62
2023-03-21T08:47:04.089Z,0.51
2023-03-21T08:49:30.874Z,1.04
2023-03-21T08:51:57.617Z,0.93
2023-03-21T08:54:24.499Z,1.44
2023-03-21T08:56:51.291Z,1.44
2023-03-21T08:59:18.125Z,1.54
2023-03-21T09:01:45.324Z,1.12
2023-03-21T09:04:13.900Z,0.87
2023-03-21T09:06:41.242Z,0.70
2023-03-21T09:09:08.233Z,0.88
2023-03-21T09:11:35.402Z,1.14
2023-03-21T09:14:02.673Z,0.86
2023-03-21T09:16:29.617Z,0.79
2023-03-21T09:18:56.453Z,0.76
2023-03-21T09:21:25.679Z,0.85
2023-03-21T09:23:52.538Z,0.64
2023-03-21T09:26:20.117Z,0.53
2023-03-21T09:28:47.277Z,0.47
2023-03-21T09:31:14.345Z,1.12
2023-03-21T09:33:41.241Z,0.73
2023-03-21T09:36:09.712Z,0.76
2023-03-21T09:38:38.264Z,1.22
2023-03-21T09:41:15.516Z,1.06
2023-03-21T09:43:52.674Z,0.78
2023-03-21T09:46:27.380Z,1.37
2023-03-21T09:48:58.727Z,1.01
2023-03-21T09:51:31.250Z,0.74
2023-03-21T09:54:02.974Z,0.56
2023-03-21T09:56:30.045Z,0.76
2023-03-21T09:58:59.043Z,0.70
2023-03-21T10:01:27.510Z,0.83
2023-03-21T10:03:54.947Z,0.74
2023-03-21T10:06:23.832Z,0.93
2023-03-21T10:08:50.696Z,0.68
2023-03-21T10:11:23.878Z,0.52
2023-03-21T10:13:55.807Z,0.44
2023-03-21T10:16:27.473Z,0.65
2023-03-21T10:18:55.560Z,0.44
2023-03-21T10:21:48.030Z,0.37
2023-03-21T10:24:13.761Z,0.49
2023-03-21T10:26:43.491Z,0.49
2023-03-21T10:29:14.098Z,0.40
2023-03-21T10:31:42.269Z,0.61
2023-03-21T10:34:16.583Z,0.51
2023-03-21T10:36:44.008Z,0.45
2023-03-21T10:39:20.906Z,0.31
2023-03-21T10:41:49.152Z,0.53
2023-03-21T10:44:18.953Z,0.43
2023-03-21T10:46:54.855Z,0.28
2023-03-21T10:49:22.360Z,0.60
2023-03-21T10:51:52.830Z,0.48
2023-03-21T10:54:22.212Z,0.35
2023-03-21T10:56:57.310Z,0.64
2023-03-21T10:59:27.360Z,0.43
2023-03-21T11:01:56.665Z,0.32
2023-03-21T11:04:26.992Z,0.71
2023-03-21T11:06:56.237Z,0.47
2023-03-21T11:09:24.600Z,0.36
2023-03-21T11:11:55.504Z,0.32
2023-03-21T11:14:36.658Z,0.29
2023-03-21T11:17:19.261Z,0.35
2023-03-21T11:19:49.090Z,0.31
2023-03-21T11:22:17.195Z,0.26
2023-03-21T11:24:49.373Z,0.24
2023-03-21T11:27:18.049Z,0.21
2023-03-21T11:29:49.766Z,0.30
2023-03-21T11:32:22.890Z,0.23
2023-03-21T11:34:51.924Z,0.21
2023-03-21T11:37:24.277Z,0.49
2023-03-21T11:39:56.081Z,0.48
2023-03-21T11:42:32.701Z,0.39
2023-03-21T11:45:10.571Z,0.30
2023-03-21T11:47:37.676Z,0.41
2023-03-21T11:50:25.176Z,0.86
2023-03-21T11:53:05.879Z,0.68
2023-03-21T11:55:40.222Z,0.70
2023-03-21T11:58:28.526Z,0.47
2023-03-21T12:01:03.446Z,0.44
2023-03-21T12:03:54.328Z,0.61
2023-03-21T12:06:29.219Z,0.48
2023-03-21T12:09:10.842Z,0.40
2023-03-21T12:11:50.283Z,0.39
2023-03-21T12:14:30.132Z,0.30
2023-03-21T12:17:10.430Z,0.92
2023-03-21T12:19:50.172Z,0.53
2023-03-21T12:22:28.042Z,0.48
2023-03-21T12:24:56.301Z,0.54
2023-03-21T12:27:37.106Z,0.38
2023-03-21T12:30:20.236Z,0.53
2023-03-21T12:33:00.127Z,0.64
2023-03-21T12:35:38.373Z,0.48
2023-03-21T12:38:16.085Z,0.30
2023-03-21T12:41:08.526Z,0.25
2023-03-21T12:43:44.488Z,0.23
2023-03-21T12:46:19.265Z,0.92
2023-03-21T12:48:50.152Z,0.93
2023-03-21T12:51:21.079Z,0.59
2023-03-21T12:53:56.729Z,0.75
2023-03-21T12:56:29.472Z,0.50
2023-03-21T12:59:01.126Z,0.94
2023-03-21T13:01:30.088Z,0.73
2023-03-21T13:04:16.797Z,0.45
2023-03-21T13:06:46.625Z,0.37
2023-03-21T13:09:23.373Z,0.24
2023-03-21T13:11:59.660Z,0.48
2023-03-21T13:14:33.886Z,0.30
2023-03-21T13:17:06.758Z,0.35
2023-03-21T13:19:42.454Z,0.23
2023-03-21T13:22:18.849Z,0.17
2023-03-21T13:24:49.179Z,0.18
2023-03-21T13:27:26.049Z,0.27
2023-03-21T13:29:58.058Z,0.43
2023-03-21T13:32:30.120Z,0.26
2023-03-21T13:34:59.619Z,0.27
2023-03-21T13:37:31.154Z,0.19
2023-03-21T13:40:02.920Z,0.17
2023-03-21T13:42:34.004Z,0.30
2023-03-21T13:45:05.561Z,0.48
2023-03-21T13:47:40.326Z,0.64
2023-03-21T13:50:44.986Z,0.39
2023-03-21T13:53:23.207Z,0.30
2023-03-21T13:56:14.454Z,0.55
2023-03-21T13:58:52.617Z,0.29
2023-03-21T14:01:28.692Z,0.17
2023-03-21T14:04:04.945Z,0.19
2023-03-21T14:06:37.844Z,0.15
2023-03-21T14:09:05.967Z,0.13
2023-03-21T14:11:35.642Z,0.11
2023-03-21T14:14:04.445Z,0.28
2023-03-21T14:16:32.668Z,0.51
2023-03-21T14:19:04.906Z,0.31
2023-03-21T14:21:33.898Z,0.21
2023-03-21T14:24:02.559Z,0.26
2023-03-21T14:26:31.840Z,0.15
2023-03-21T14:28:59.262Z,0.08
2023-03-21T14:31:26.646Z,0.45
2023-03-21T14:33:57.506Z,0.29
2023-03-21T14:36:28.030Z,0.25
2023-03-21T14:39:02.454Z,0.13
2023-03-21T14:41:32.375Z,0.29
2023-03-21T14:44:11.907Z,1.15
2023-03-21T14:46:38.917Z,0.93
2023-03-21T14:49:14.015Z,0.58
2023-03-21T14:51:42.848Z,0.60
2023-03-21T14:54:13.669Z,0.41
2023-03-21T14:56:40.562Z,0.24
2023-03-21T14:59:12.052Z,0.22
2023-03-21T15:01:40.523Z,0.43
2023-03-21T15:04:08.862Z,0.28
2023-03-21T15:06:51.431Z,0.19
2023-03-21T15:09:20.060Z,0.15
2023-03-21T15:11:51.344Z,0.59
2023-03-21T15:14:23.481Z,0.48
2023-03-21T15:16:50.935Z,0.45
2023-03-21T15:19:23.224Z,0.76
2023-03-21T15:21:57.054Z,0.44
2023-03-21T15:24:29.575Z,0.55
2023-03-21T15:27:01.214Z,0.37
2023-03-21T15:29:28.541Z,0.21
2023-03-21T15:31:55.454Z,0.60
2023-03-21T15:34:24.399Z,0.70
2023-03-21T15:36:57.741Z,0.47
2023-03-21T15:39:28.083Z,0.25
2023-03-21T15:42:07.248Z,0.27
2023-03-21T15:44:36.667Z,0.29
2023-03-21T15:47:03.643Z,0.33
2023-03-21T15:49:34.026Z,0.29
2023-03-21T15:52:11.539Z,0.20
2023-03-21T15:54:43.485Z,0.24
2023-03-21T15:57:22.499Z,0.17
2023-03-21T15:59:57.396Z,0.14
2023-03-21T16:02:29.300Z,0.16
2023-03-21T16:05:00.112Z,0.24
2023-03-21T16:07:28.980Z,0.17
2023-03-21T16:10:01.794Z,0.26
2023-03-21T16:12:30.887Z,0.23
2023-03-21T16:14:58.192Z,0.46
2023-03-21T16:17:36.283Z,1.00
2023-03-21T16:20:05.853Z,0.65
2023-03-21T16:22:35.525Z,0.81
2023-03-21T16:25:03.615Z,0.78
2023-03-21T16:27:30.870Z,0.78
2023-03-21T16:29:57.964Z,0.63
2023-03-21T16:32:25.548Z,0.41
2023-03-21T16:34:55.145Z,0.26
2023-03-21T16:37:23.265Z,0.95
2023-03-21T16:39:52.422Z,1.05
2023-03-21T16:42:20.711Z,0.71
2023-03-21T16:44:47.517Z,1.01
2023-03-21T16:47:16.045Z,0.63
2023-03-21T16:49:43.561Z,0.57
2023-03-21T16:52:11.227Z,0.67
2023-03-21T16:54:38.222Z,1.08
2023-03-21T16:57:09.830Z,9.66
2023-03-21T16:59:36.849Z,10.85
2023-03-21T17:02:12.314Z,6.48
2023-03-21T17:04:39.059Z,3.58
2023-03-21T17:07:09.994Z,3.53
2023-03-21T17:09:36.840Z,3.94
2023-03-21T17:12:04.337Z,2.44
2023-03-21T17:14:32.566Z,2.53
2023-03-21T17:16:59.440Z,1.40
2023-03-21T17:19:26.900Z,1.24
2023-03-21T17:21:53.869Z,2.09
2023-03-21T17:24:20.683Z,1.76
2023-03-21T17:26:47.534Z,1.33
2023-03-21T17:29:14.700Z,1.03
2023-03-21T17:31:42.916Z,0.85
2023-03-21T17:34:09.782Z,1.22
2023-03-21T17:36:39.323Z,1.04
2023-03-21T17:39:07.573Z,3.85
2023-03-21T17:41:34.778Z,4.89
2023-03-21T17:44:01.543Z,4.62
2023-03-21T17:46:29.383Z,2.82
2023-03-21T17:48:57.677Z,2.17
2023-03-21T17:51:24.384Z,2.39
2023-03-21T17:53:51.221Z,1.83
2023-03-21T17:56:21.179Z,1.25
2023-03-21T17:58:47.973Z,0.88
2023-03-21T18:01:15.224Z,0.62
2023-03-21T18:03:42.291Z,0.68
2023-03-21T18:06:16.578Z,0.60
2023-03-21T18:08:43.762Z,1.83
2023-03-21T18:11:11.774Z,1.48
2023-03-21T18:13:39.888Z,1.04
2023-03-21T18:16:08.331Z,1.63
2023-03-21T18:18:35.176Z,1.67
2023-03-21T18:21:02.496Z,2.04
2023-03-21T18:23:30.791Z,2.17
2023-03-21T18:25:58.799Z,1.84
2023-03-21T18:28:26.034Z,1.16
2023-03-21T18:31:13.589Z,1.13
2023-03-21T18:33:41.290Z,1.30
2023-03-21T18:36:08.973Z,1.00
2023-03-21T18:38:37.801Z,1.04
2023-03-21T18:41:05.026Z,0.95
2023-03-21T18:44:00.995Z,1.12
2023-03-21T18:46:18.869Z,0.64
2023-03-21T18:48:46.555Z,0.60
2023-03-21T18:51:13.459Z,0.60
2023-03-21T18:53:43.172Z,0.43
2023-03-21T18:56:10.628Z,0.66
2023-03-21T18:58:38.304Z,0.49
2023-03-21T19:01:05.525Z,0.35
2023-03-21T19:03:37.135Z,0.96
2023-03-21T19:06:05.507Z,1.38
2023-03-21T19:08:32.795Z,0.86
2023-03-21T19:11:04.350Z,0.60
2023-03-21T19:13:33.407Z,0.46
2023-03-21T19:16:02.179Z,0.85
2023-03-21T19:18:50.255Z,1.07
2023-03-21T19:21:16.766Z,1.02
2023-03-21T19:24:20.988Z,1.00
2023-03-21T19:26:31.700Z,1.70
2023-03-21T19:28:58.454Z,1.74
2023-03-21T19:31:25.642Z,1.22
2023-03-21T19:33:52.555Z,2.17
2023-03-21T19:36:22.703Z,1.36
2023-03-21T19:38:50.273Z,1.19
2023-03-21T19:41:17.582Z,1.23
2023-03-21T19:43:54.104Z,1.40
2023-03-21T19:46:22.562Z,0.98
2023-03-21T19:48:49.583Z,0.97
2023-03-21T19:51:32.472Z,0.64
2023-03-21T19:54:02.249Z,1.19
2023-03-21T19:56:31.373Z,1.65
2023-03-21T19:59:00.298Z,1.17
2023-03-21T20:01:27.146Z,0.82
2023-03-21T20:03:54.004Z,0.92
2023-03-21T20:06:21.189Z,0.75
2023-03-21T20:11:34.934Z,0.84
2023-03-21T20:14:03.493Z,0.59
2023-03-21T20:16:34.795Z,0.89
2023-03-21T20:19:02.516Z,0.57
2023-03-21T20:21:40.218Z,0.79
2023-03-21T20:24:12.961Z,1.75
2023-03-21T20:26:40.063Z,1.19
2023-03-21T20:29:59.901Z,1.14
2023-03-21T20:31:55.181Z,0.80
2023-03-21T20:34:21.922Z,0.53
2023-03-21T20:36:48.817Z,0.33
2023-03-21T20:39:15.706Z,0.29
2023-03-21T20:41:42.589Z,0.41
2023-03-21T20:46:57.694Z,0.47
2023-03-21T20:49:24.535Z,0.35
2023-03-21T20:54:38.820Z,0.38
2023-03-21T20:57:05.576Z,0.71
2023-03-21T20:59:33.890Z,1.32
2023-03-21T21:02:00.803Z,1.04
2023-03-21T21:04:46.995Z,0.93
2023-03-21T21:07:15.828Z,0.75
2023-03-21T21:09:42.738Z,0.58
2023-03-21T21:12:10.119Z,0.78
2023-03-21T21:14:38.494Z,0.92
2023-03-21T21:17:23.212Z,1.08
2023-03-21T21:19:53.587Z,1.19
2023-03-21T21:22:20.463Z,0.88
2023-03-21T21:24:47.255Z,1.02
2023-03-21T21:27:14.017Z,1.66
2023-03-21T21:29:42.256Z,1.52
2023-03-21T21:32:09.045Z,0.97
2023-03-21T21:34:35.945Z,0.66
2023-03-21T21:37:02.797Z,1.37
2023-03-21T21:39:29.694Z,1.23
2023-03-21T21:41:56.503Z,1.33
2023-03-21T21:44:23.317Z,0.92
2023-03-21T21:46:51.526Z,1.21
2023-03-21T21:49:18.310Z,1.46
2023-03-21T21:51:46.670Z,3.15
2023-03-21T21:54:14.702Z,2.37
2023-03-21T21:56:41.482Z,1.85
2023-03-21T21:59:08.283Z,1.84
2023-03-21T22:01:35.059Z,1.50
2023-03-21T22:04:03.349Z,2.46
2023-03-21T22:06:30.129Z,1.74
2023-03-21T22:08:56.919Z,1.53
2023-03-21T22:11:23.764Z,1.28
2023-03-21T22:13:51.861Z,1.19
2023-03-21T22:16:18.929Z,1.65
2023-03-21T22:18:45.705Z,1.57
2023-03-21T22:21:14.324Z,1.66
2023-03-21T22:23:41.161Z,2.13
2023-03-21T22:26:08.490Z,1.57
2023-03-21T22:28:35.537Z,1.93
2023-03-21T22:31:08.845Z,2.02
2023-03-21T22:33:35.687Z,1.99
2023-03-21T22:36:02.877Z,2.65
2023-03-21T22:38:31.038Z,1.63
2023-03-21T22:40:59.375Z,1.13
2023-03-21T22:43:26.689Z,1.23
2023-03-21T22:45:53.578Z,1.65
2023-03-21T22:48:21.205Z,1.47
2023-03-21T22:50:48.389Z,1.65
2023-03-21T22:53:15.194Z,1.82
2023-03-21T22:55:43.329Z,1.38
2023-03-21T22:58:10.145Z,2.40
2023-03-21T23:00:37.392Z,3.02
2023-03-21T23:03:04.392Z,1.95
2023-03-21T23:05:31.461Z,1.56
2023-03-21T23:07:58.226Z,1.45
2023-03-21T23:10:25.025Z,1.69
2023-03-21T23:12:53.177Z,1.23
2023-03-21T23:15:19.917Z,1.37
2023-03-21T23:17:46.661Z,1.12
2023-03-21T23:20:13.652Z,0.87
2023-03-21T23:22:40.713Z,0.91
2023-03-21T23:25:08.181Z,0.78
2023-03-21T23:27:35.300Z,1.81
2023-03-21T23:30:03.881Z,1.18
2023-03-21T23:32:31.668Z,1.73
2023-03-21T23:34:58.503Z,1.97
2023-03-21T23:37:25.539Z,2.17
2023-03-21T23:39:52.796Z,1.95
2023-03-21T23:42:19.546Z,2.78
2023-03-21T23:44:46.540Z,2.60
2023-03-21T23:47:14.726Z,3.11
2023-03-21T23:49:41.764Z,3.46
2023-03-21T23:52:08.581Z,3.15
2023-03-21T23:54:53.992Z,2.48
2023-03-21T23:57:41.000Z,1.80
